sensor_id;sensor_type;location;lat;lon;timestamp;temperature;humidity
77523;SHT31;66637;-29.628;-49.938;2023-09-07T00:01:32;17.90;81.31
77523;SHT31;66637;-29.628;-49.938;2023-09-07T00:04:03;17.91;81.36
77523;SHT31;66637;-29.628;-49.938;2023-09-07T00:06:36;17.90;81.28
77523;SHT31;66637;-29.628;-49.938;2023-09-07T00:09:07;17.93;81.42
77523;SHT31;66637;-29.628;-49.938;2023-09-07T00:11:38;17.90;81.39
77523;SHT31;66637;-29.628;-49.938;2023-09-07T00:14:10;17.93;81.42
77523;SHT31;66637;-29.628;-49.938;2023-09-07T00:16:40;17.91;81.34
77523;SHT31;66637;-29.628;-49.938;2023-09-07T00:19:12;17.91;81.62
77523;SHT31;66637;-29.628;-49.938;2023-09-07T00:21:42;17.90;81.64
77523;SHT31;66637;-29.628;-49.938;2023-09-07T00:24:12;17.90;81.59
77523;SHT31;66637;-29.628;-49.938;2023-09-07T00:26:46;17.89;81.93
77523;SHT31;66637;-29.628;-49.938;2023-09-07T00:29:17;17.86;82.13
77523;SHT31;66637;-29.628;-49.938;2023-09-07T00:31:49;17.86;81.99
77523;SHT31;66637;-29.628;-49.938;2023-09-07T00:34:21;17.83;82.08
77523;SHT31;66637;-29.628;-49.938;2023-09-07T00:36:51;17.77;82.08
77523;SHT31;66637;-29.628;-49.938;2023-09-07T00:39:23;17.77;82.18
77523;SHT31;66637;-29.628;-49.938;2023-09-07T00:41:54;17.76;82.25
77523;SHT31;66637;-29.628;-49.938;2023-09-07T00:44:25;17.73;82.17
77523;SHT31;66637;-29.628;-49.938;2023-09-07T00:46:56;17.72;82.25
77523;SHT31;66637;-29.628;-49.938;2023-09-07T00:49:28;17.72;82.22
77523;SHT31;66637;-29.628;-49.938;2023-09-07T00:52:01;17.70;82.25
77523;SHT31;66637;-29.628;-49.938;2023-09-07T00:54:33;17.70;82.13
77523;SHT31;66637;-29.628;-49.938;2023-09-07T00:57:06;17.70;82.22
77523;SHT31;66637;-29.628;-49.938;2023-09-07T00:59:37;17.69;82.35
77523;SHT31;66637;-29.628;-49.938;2023-09-07T01:02:08;17.67;82.28
77523;SHT31;66637;-29.628;-49.938;2023-09-07T01:04:38;17.66;82.57
77523;SHT31;66637;-29.628;-49.938;2023-09-07T01:07:35;17.67;82.58
77523;SHT31;66637;-29.628;-49.938;2023-09-07T01:10:08;17.65;82.87
77523;SHT31;66637;-29.628;-49.938;2023-09-07T01:12:40;17.63;82.99
77523;SHT31;66637;-29.628;-49.938;2023-09-07T01:15:10;17.61;83.00
77523;SHT31;66637;-29.628;-49.938;2023-09-07T01:17:43;17.61;83.06
77523;SHT31;66637;-29.628;-49.938;2023-09-07T01:20:16;17.57;83.30
77523;SHT31;66637;-29.628;-49.938;2023-09-07T01:22:49;17.57;83.07
77523;SHT31;66637;-29.628;-49.938;2023-09-07T01:25:23;17.59;83.05
77523;SHT31;66637;-29.628;-49.938;2023-09-07T01:27:54;17.61;82.97
77523;SHT31;66637;-29.628;-49.938;2023-09-07T01:30:27;17.61;82.92
77523;SHT31;66637;-29.628;-49.938;2023-09-07T01:32:58;17.61;82.84
77523;SHT31;66637;-29.628;-49.938;2023-09-07T01:35:30;17.62;82.94
77523;SHT31;66637;-29.628;-49.938;2023-09-07T01:38:03;17.59;82.85
77523;SHT31;66637;-29.628;-49.938;2023-09-07T01:40:33;17.61;83.03
77523;SHT31;66637;-29.628;-49.938;2023-09-07T01:43:04;17.55;82.69
77523;SHT31;66637;-29.628;-49.938;2023-09-07T01:45:34;17.59;83.02
77523;SHT31;66637;-29.628;-49.938;2023-09-07T01:48:11;17.56;83.16
77523;SHT31;66637;-29.628;-49.938;2023-09-07T01:50:43;17.56;83.13
77523;SHT31;66637;-29.628;-49.938;2023-09-07T01:53:13;17.52;83.07
77523;SHT31;66637;-29.628;-49.938;2023-09-07T01:55:43;17.57;83.02
77523;SHT31;66637;-29.628;-49.938;2023-09-07T01:58:15;17.56;83.08
77523;SHT31;66637;-29.628;-49.938;2023-09-07T02:00:47;17.57;83.08
77523;SHT31;66637;-29.628;-49.938;2023-09-07T02:03:19;17.59;82.94
77523;SHT31;66637;-29.628;-49.938;2023-09-07T02:05:49;17.59;83.22
77523;SHT31;66637;-29.628;-49.938;2023-09-07T02:08:21;17.59;83.22
77523;SHT31;66637;-29.628;-49.938;2023-09-07T02:10:52;17.59;83.18
77523;SHT31;66637;-29.628;-49.938;2023-09-07T02:13:24;17.61;83.28
77523;SHT31;66637;-29.628;-49.938;2023-09-07T02:15:56;17.59;83.28
77523;SHT31;66637;-29.628;-49.938;2023-09-07T02:18:27;17.57;83.34
77523;SHT31;66637;-29.628;-49.938;2023-09-07T02:21:06;17.55;83.71
77523;SHT31;66637;-29.628;-49.938;2023-09-07T02:23:38;17.56;83.72
77523;SHT31;66637;-29.628;-49.938;2023-09-07T02:26:08;17.55;83.27
77523;SHT31;66637;-29.628;-49.938;2023-09-07T02:28:40;17.55;83.32
77523;SHT31;66637;-29.628;-49.938;2023-09-07T02:31:12;17.56;83.40
77523;SHT31;66637;-29.628;-49.938;2023-09-07T02:33:43;17.53;83.45
77523;SHT31;66637;-29.628;-49.938;2023-09-07T02:36:13;17.52;83.48
77523;SHT31;66637;-29.628;-49.938;2023-09-07T02:38:44;17.55;83.70
77523;SHT31;66637;-29.628;-49.938;2023-09-07T02:41:16;17.55;83.72
77523;SHT31;66637;-29.628;-49.938;2023-09-07T02:43:51;17.57;83.68
77523;SHT31;66637;-29.628;-49.938;2023-09-07T02:46:22;17.62;83.64
77523;SHT31;66637;-29.628;-49.938;2023-09-07T02:48:53;17.63;83.56
77523;SHT31;66637;-29.628;-49.938;2023-09-07T02:51:27;17.63;83.69
77523;SHT31;66637;-29.628;-49.938;2023-09-07T02:53:57;17.65;83.23
77523;SHT31;66637;-29.628;-49.938;2023-09-07T02:56:28;17.66;83.06
77523;SHT31;66637;-29.628;-49.938;2023-09-07T02:59:00;17.65;82.69
77523;SHT31;66637;-29.628;-49.938;2023-09-07T03:01:31;17.63;82.22
77523;SHT31;66637;-29.628;-49.938;2023-09-07T03:04:01;17.67;82.43
77523;SHT31;66637;-29.628;-49.938;2023-09-07T03:06:35;17.66;81.99
77523;SHT31;66637;-29.628;-49.938;2023-09-07T03:09:05;17.69;81.70
77523;SHT31;66637;-29.628;-49.938;2023-09-07T03:11:40;17.70;81.36
77523;SHT31;66637;-29.628;-49.938;2023-09-07T03:14:11;17.73;81.77
77523;SHT31;66637;-29.628;-49.938;2023-09-07T03:16:43;17.76;81.73
77523;SHT31;66637;-29.628;-49.938;2023-09-07T03:19:15;17.73;81.77
77523;SHT31;66637;-29.628;-49.938;2023-09-07T03:21:45;17.70;82.04
77523;SHT31;66637;-29.628;-49.938;2023-09-07T03:24:16;17.69;82.19
77523;SHT31;66637;-29.628;-49.938;2023-09-07T03:26:47;17.73;82.79
77523;SHT31;66637;-29.628;-49.938;2023-09-07T03:29:19;17.73;83.04
77523;SHT31;66637;-29.628;-49.938;2023-09-07T03:31:50;17.72;83.04
77523;SHT31;66637;-29.628;-49.938;2023-09-07T03:34:21;17.67;83.12
77523;SHT31;66637;-29.628;-49.938;2023-09-07T03:36:53;17.66;83.11
77523;SHT31;66637;-29.628;-49.938;2023-09-07T03:39:24;17.65;83.21
77523;SHT31;66637;-29.628;-49.938;2023-09-07T03:41:55;17.62;83.47
77523;SHT31;66637;-29.628;-49.938;2023-09-07T03:44:25;17.61;83.48
77523;SHT31;66637;-29.628;-49.938;2023-09-07T03:46:56;17.57;83.38
77523;SHT31;66637;-29.628;-49.938;2023-09-07T03:49:28;17.57;83.39
77523;SHT31;66637;-29.628;-49.938;2023-09-07T03:51:59;17.59;83.50
77523;SHT31;66637;-29.628;-49.938;2023-09-07T03:54:31;17.53;83.66
77523;SHT31;66637;-29.628;-49.938;2023-09-07T03:57:02;17.55;83.66
77523;SHT31;66637;-29.628;-49.938;2023-09-07T03:59:34;17.53;83.74
77523;SHT31;66637;-29.628;-49.938;2023-09-07T04:02:04;17.50;83.84
77523;SHT31;66637;-29.628;-49.938;2023-09-07T04:04:35;17.49;83.93
77523;SHT31;66637;-29.628;-49.938;2023-09-07T04:07:07;17.47;84.07
77523;SHT31;66637;-29.628;-49.938;2023-09-07T04:09:38;17.47;83.86
77523;SHT31;66637;-29.628;-49.938;2023-09-07T04:12:12;17.47;83.92
77523;SHT31;66637;-29.628;-49.938;2023-09-07T04:14:45;17.46;83.90
77523;SHT31;66637;-29.628;-49.938;2023-09-07T04:17:18;17.47;84.09
77523;SHT31;66637;-29.628;-49.938;2023-09-07T04:19:49;17.46;84.28
77523;SHT31;66637;-29.628;-49.938;2023-09-07T04:22:20;17.45;84.54
77523;SHT31;66637;-29.628;-49.938;2023-09-07T04:24:52;17.40;84.66
77523;SHT31;66637;-29.628;-49.938;2023-09-07T04:27:24;17.40;84.74
77523;SHT31;66637;-29.628;-49.938;2023-09-07T04:29:57;17.36;84.90
77523;SHT31;66637;-29.628;-49.938;2023-09-07T04:32:29;17.35;85.07
77523;SHT31;66637;-29.628;-49.938;2023-09-07T04:34:59;17.33;85.23
77523;SHT31;66637;-29.628;-49.938;2023-09-07T04:37:31;17.35;85.28
77523;SHT31;66637;-29.628;-49.938;2023-09-07T04:40:05;17.35;85.49
77523;SHT31;66637;-29.628;-49.938;2023-09-07T04:42:36;17.31;85.47
77523;SHT31;66637;-29.628;-49.938;2023-09-07T04:45:11;17.32;85.64
77523;SHT31;66637;-29.628;-49.938;2023-09-07T04:47:43;17.31;85.60
77523;SHT31;66637;-29.628;-49.938;2023-09-07T04:50:17;17.29;85.54
77523;SHT31;66637;-29.628;-49.938;2023-09-07T04:52:49;17.29;85.67
77523;SHT31;66637;-29.628;-49.938;2023-09-07T04:55:20;17.31;85.44
77523;SHT31;66637;-29.628;-49.938;2023-09-07T04:57:51;17.33;85.29
77523;SHT31;66637;-29.628;-49.938;2023-09-07T05:00:23;17.33;85.23
77523;SHT31;66637;-29.628;-49.938;2023-09-07T05:02:55;17.39;85.11
77523;SHT31;66637;-29.628;-49.938;2023-09-07T05:05:26;17.38;84.97
77523;SHT31;66637;-29.628;-49.938;2023-09-07T05:07:57;17.33;85.17
77523;SHT31;66637;-29.628;-49.938;2023-09-07T05:10:28;17.32;85.13
77523;SHT31;66637;-29.628;-49.938;2023-09-07T05:12:59;17.31;84.90
77523;SHT31;66637;-29.628;-49.938;2023-09-07T05:15:30;17.28;84.94
77523;SHT31;66637;-29.628;-49.938;2023-09-07T05:18:00;17.26;85.03
77523;SHT31;66637;-29.628;-49.938;2023-09-07T05:20:32;17.23;85.26
77523;SHT31;66637;-29.628;-49.938;2023-09-07T05:23:03;17.18;85.20
77523;SHT31;66637;-29.628;-49.938;2023-09-07T05:25:33;17.15;85.45
77523;SHT31;66637;-29.628;-49.938;2023-09-07T05:28:05;17.14;85.55
77523;SHT31;66637;-29.628;-49.938;2023-09-07T05:30:36;17.12;85.65
77523;SHT31;66637;-29.628;-49.938;2023-09-07T05:33:09;17.12;85.53
77523;SHT31;66637;-29.628;-49.938;2023-09-07T05:35:41;17.11;85.49
77523;SHT31;66637;-29.628;-49.938;2023-09-07T05:38:13;17.11;85.36
77523;SHT31;66637;-29.628;-49.938;2023-09-07T05:40:45;17.12;85.48
77523;SHT31;66637;-29.628;-49.938;2023-09-07T05:43:20;17.07;85.45
77523;SHT31;66637;-29.628;-49.938;2023-09-07T05:45:51;17.01;85.24
77523;SHT31;66637;-29.628;-49.938;2023-09-07T05:48:21;16.98;85.00
77523;SHT31;66637;-29.628;-49.938;2023-09-07T05:50:53;17.00;84.84
77523;SHT31;66637;-29.628;-49.938;2023-09-07T05:53:25;17.02;84.76
77523;SHT31;66637;-29.628;-49.938;2023-09-07T05:55:57;17.02;84.59
77523;SHT31;66637;-29.628;-49.938;2023-09-07T05:58:27;17.04;84.48
77523;SHT31;66637;-29.628;-49.938;2023-09-07T06:01:00;17.02;84.35
77523;SHT31;66637;-29.628;-49.938;2023-09-07T06:03:31;17.02;84.26
77523;SHT31;66637;-29.628;-49.938;2023-09-07T06:06:02;17.04;84.14
77523;SHT31;66637;-29.628;-49.938;2023-09-07T06:08:34;17.11;83.93
77523;SHT31;66637;-29.628;-49.938;2023-09-07T06:11:05;17.15;83.91
77523;SHT31;66637;-29.628;-49.938;2023-09-07T06:13:36;17.18;83.79
77523;SHT31;66637;-29.628;-49.938;2023-09-07T06:16:06;17.22;83.83
77523;SHT31;66637;-29.628;-49.938;2023-09-07T06:18:38;17.16;83.87
77523;SHT31;66637;-29.628;-49.938;2023-09-07T06:21:08;17.16;83.90
77523;SHT31;66637;-29.628;-49.938;2023-09-07T06:23:40;17.15;83.92
77523;SHT31;66637;-29.628;-49.938;2023-09-07T06:26:11;17.16;84.02
77523;SHT31;66637;-29.628;-49.938;2023-09-07T06:28:43;17.14;83.95
77523;SHT31;66637;-29.628;-49.938;2023-09-07T06:31:14;17.15;84.18
77523;SHT31;66637;-29.628;-49.938;2023-09-07T06:33:47;17.14;83.83
77523;SHT31;66637;-29.628;-49.938;2023-09-07T06:36:17;17.15;83.84
77523;SHT31;66637;-29.628;-49.938;2023-09-07T06:39:05;17.15;83.70
77523;SHT31;66637;-29.628;-49.938;2023-09-07T06:41:35;17.11;83.63
77523;SHT31;66637;-29.628;-49.938;2023-09-07T06:44:07;17.08;83.63
77523;SHT31;66637;-29.628;-49.938;2023-09-07T06:46:37;17.04;83.52
77523;SHT31;66637;-29.628;-49.938;2023-09-07T06:49:08;17.05;83.60
77523;SHT31;66637;-29.628;-49.938;2023-09-07T06:51:39;17.04;83.43
77523;SHT31;66637;-29.628;-49.938;2023-09-07T06:54:11;17.04;83.44
77523;SHT31;66637;-29.628;-49.938;2023-09-07T06:56:43;17.01;83.40
77523;SHT31;66637;-29.628;-49.938;2023-09-07T06:59:14;16.96;83.47
77523;SHT31;66637;-29.628;-49.938;2023-09-07T07:01:46;16.94;83.55
77523;SHT31;66637;-29.628;-49.938;2023-09-07T07:04:17;16.88;83.66
77523;SHT31;66637;-29.628;-49.938;2023-09-07T07:06:49;16.82;83.75
77523;SHT31;66637;-29.628;-49.938;2023-09-07T07:09:20;16.81;83.76
77523;SHT31;66637;-29.628;-49.938;2023-09-07T07:11:50;16.78;83.76
77523;SHT31;66637;-29.628;-49.938;2023-09-07T07:14:21;16.78;83.70
77523;SHT31;66637;-29.628;-49.938;2023-09-07T07:16:51;16.78;83.72
77523;SHT31;66637;-29.628;-49.938;2023-09-07T07:19:23;16.77;83.71
77523;SHT31;66637;-29.628;-49.938;2023-09-07T07:21:54;16.80;83.78
77523;SHT31;66637;-29.628;-49.938;2023-09-07T07:24:25;16.77;83.87
77523;SHT31;66637;-29.628;-49.938;2023-09-07T07:26:57;16.77;83.86
77523;SHT31;66637;-29.628;-49.938;2023-09-07T07:29:31;16.77;83.89
77523;SHT31;66637;-29.628;-49.938;2023-09-07T07:32:03;16.70;84.03
77523;SHT31;66637;-29.628;-49.938;2023-09-07T07:34:36;16.71;84.09
77523;SHT31;66637;-29.628;-49.938;2023-09-07T07:37:06;16.71;84.05
77523;SHT31;66637;-29.628;-49.938;2023-09-07T07:39:37;16.74;84.04
77523;SHT31;66637;-29.628;-49.938;2023-09-07T07:42:08;16.75;84.11
77523;SHT31;66637;-29.628;-49.938;2023-09-07T07:44:39;16.72;84.07
77523;SHT31;66637;-29.628;-49.938;2023-09-07T07:47:11;16.78;84.08
77523;SHT31;66637;-29.628;-49.938;2023-09-07T07:49:41;16.81;83.99
77523;SHT31;66637;-29.628;-49.938;2023-09-07T07:52:13;16.81;84.02
77523;SHT31;66637;-29.628;-49.938;2023-09-07T07:54:45;16.78;83.86
77523;SHT31;66637;-29.628;-49.938;2023-09-07T07:57:17;16.78;83.82
77523;SHT31;66637;-29.628;-49.938;2023-09-07T07:59:48;16.80;83.74
77523;SHT31;66637;-29.628;-49.938;2023-09-07T08:02:19;16.80;83.74
77523;SHT31;66637;-29.628;-49.938;2023-09-07T08:04:51;16.81;83.66
77523;SHT31;66637;-29.628;-49.938;2023-09-07T08:07:21;16.82;83.59
77523;SHT31;66637;-29.628;-49.938;2023-09-07T08:09:53;16.82;83.56
77523;SHT31;66637;-29.628;-49.938;2023-09-07T08:12:24;16.80;83.57
77523;SHT31;66637;-29.628;-49.938;2023-09-07T08:14:55;16.85;83.50
77523;SHT31;66637;-29.628;-49.938;2023-09-07T08:17:27;16.85;83.51
77523;SHT31;66637;-29.628;-49.938;2023-09-07T08:19:59;16.81;83.45
77523;SHT31;66637;-29.628;-49.938;2023-09-07T08:22:29;16.85;83.48
77523;SHT31;66637;-29.628;-49.938;2023-09-07T08:24:59;16.85;83.39
77523;SHT31;66637;-29.628;-49.938;2023-09-07T08:27:30;16.88;83.26
77523;SHT31;66637;-29.628;-49.938;2023-09-07T08:30:03;16.89;83.22
77523;SHT31;66637;-29.628;-49.938;2023-09-07T08:32:36;16.91;83.11
77523;SHT31;66637;-29.628;-49.938;2023-09-07T08:35:13;16.92;83.07
77523;SHT31;66637;-29.628;-49.938;2023-09-07T08:37:46;16.91;83.06
77523;SHT31;66637;-29.628;-49.938;2023-09-07T08:40:16;16.92;82.99
77523;SHT31;66637;-29.628;-49.938;2023-09-07T08:42:48;16.88;83.00
77523;SHT31;66637;-29.628;-49.938;2023-09-07T08:45:21;16.94;82.95
77523;SHT31;66637;-29.628;-49.938;2023-09-07T08:47:55;16.95;82.98
77523;SHT31;66637;-29.628;-49.938;2023-09-07T08:50:28;16.91;83.02
77523;SHT31;66637;-29.628;-49.938;2023-09-07T08:53:01;16.94;83.03
77523;SHT31;66637;-29.628;-49.938;2023-09-07T08:55:33;16.92;83.02
77523;SHT31;66637;-29.628;-49.938;2023-09-07T08:58:05;16.91;83.01
77523;SHT31;66637;-29.628;-49.938;2023-09-07T09:00:37;16.89;83.04
77523;SHT31;66637;-29.628;-49.938;2023-09-07T09:03:09;16.89;83.11
77523;SHT31;66637;-29.628;-49.938;2023-09-07T09:05:40;16.87;83.21
77523;SHT31;66637;-29.628;-49.938;2023-09-07T09:08:11;16.87;83.24
77523;SHT31;66637;-29.628;-49.938;2023-09-07T09:10:43;16.85;83.23
77523;SHT31;66637;-29.628;-49.938;2023-09-07T09:13:14;16.85;83.22
77523;SHT31;66637;-29.628;-49.938;2023-09-07T09:15:48;16.88;83.17
77523;SHT31;66637;-29.628;-49.938;2023-09-07T09:18:19;16.85;83.18
77523;SHT31;66637;-29.628;-49.938;2023-09-07T09:20:54;16.87;83.19
77523;SHT31;66637;-29.628;-49.938;2023-09-07T09:23:35;16.85;83.29
77523;SHT31;66637;-29.628;-49.938;2023-09-07T09:26:07;16.87;83.44
77523;SHT31;66637;-29.628;-49.938;2023-09-07T09:28:38;16.88;83.59
77523;SHT31;66637;-29.628;-49.938;2023-09-07T09:31:10;16.89;83.79
77523;SHT31;66637;-29.628;-49.938;2023-09-07T09:33:48;16.89;83.92
77523;SHT31;66637;-29.628;-49.938;2023-09-07T09:36:20;16.89;83.88
77523;SHT31;66637;-29.628;-49.938;2023-09-07T09:38:51;16.91;83.93
77523;SHT31;66637;-29.628;-49.938;2023-09-07T09:41:27;16.96;83.96
77523;SHT31;66637;-29.628;-49.938;2023-09-07T09:43:58;16.98;84.08
77523;SHT31;66637;-29.628;-49.938;2023-09-07T09:46:32;17.02;84.20
77523;SHT31;66637;-29.628;-49.938;2023-09-07T09:49:04;17.04;84.29
77523;SHT31;66637;-29.628;-49.938;2023-09-07T09:51:37;17.05;84.33
77523;SHT31;66637;-29.628;-49.938;2023-09-07T09:54:12;17.02;84.25
77523;SHT31;66637;-29.628;-49.938;2023-09-07T09:56:43;17.05;84.14
77523;SHT31;66637;-29.628;-49.938;2023-09-07T09:59:15;17.07;83.83
77523;SHT31;66637;-29.628;-49.938;2023-09-07T10:01:47;17.10;83.59
77523;SHT31;66637;-29.628;-49.938;2023-09-07T10:04:24;17.14;83.37
77523;SHT31;66637;-29.628;-49.938;2023-09-07T10:06:58;17.18;83.24
77523;SHT31;66637;-29.628;-49.938;2023-09-07T10:09:32;17.21;83.16
77523;SHT31;66637;-29.628;-49.938;2023-09-07T10:12:04;17.25;83.09
77523;SHT31;66637;-29.628;-49.938;2023-09-07T10:14:41;17.29;82.96
77523;SHT31;66637;-29.628;-49.938;2023-09-07T10:17:22;17.38;82.86
77523;SHT31;66637;-29.628;-49.938;2023-09-07T10:20:04;17.43;82.71
77523;SHT31;66637;-29.628;-49.938;2023-09-07T10:22:39;17.45;82.60
77523;SHT31;66637;-29.628;-49.938;2023-09-07T10:25:22;17.49;82.59
77523;SHT31;66637;-29.628;-49.938;2023-09-07T10:27:53;17.52;82.48
77523;SHT31;66637;-29.628;-49.938;2023-09-07T10:30:23;17.59;82.36
77523;SHT31;66637;-29.628;-49.938;2023-09-07T10:32:56;17.61;82.31
77523;SHT31;66637;-29.628;-49.938;2023-09-07T10:35:35;17.61;82.33
77523;SHT31;66637;-29.628;-49.938;2023-09-07T10:38:12;17.66;82.26
77523;SHT31;66637;-29.628;-49.938;2023-09-07T10:40:47;17.70;82.21
77523;SHT31;66637;-29.628;-49.938;2023-09-07T10:43:19;17.70;82.14
77523;SHT31;66637;-29.628;-49.938;2023-09-07T10:45:51;17.73;82.13
77523;SHT31;66637;-29.628;-49.938;2023-09-07T10:48:28;17.73;82.03
77523;SHT31;66637;-29.628;-49.938;2023-09-07T10:51:00;17.77;82.08
77523;SHT31;66637;-29.628;-49.938;2023-09-07T10:53:32;17.80;82.02
77523;SHT31;66637;-29.628;-49.938;2023-09-07T10:56:04;17.85;81.88
77523;SHT31;66637;-29.628;-49.938;2023-09-07T10:58:37;17.90;81.93
77523;SHT31;66637;-29.628;-49.938;2023-09-07T11:01:12;17.91;81.74
77523;SHT31;66637;-29.628;-49.938;2023-09-07T11:03:45;17.98;81.69
77523;SHT31;66637;-29.628;-49.938;2023-09-07T11:06:18;18.03;81.54
77523;SHT31;66637;-29.628;-49.938;2023-09-07T11:08:54;18.01;81.50
77523;SHT31;66637;-29.628;-49.938;2023-09-07T11:11:26;18.07;81.50
77523;SHT31;66637;-29.628;-49.938;2023-09-07T11:13:58;18.08;81.45
77523;SHT31;66637;-29.628;-49.938;2023-09-07T11:16:29;18.13;81.39
77523;SHT31;66637;-29.628;-49.938;2023-09-07T11:19:07;18.11;81.40
77523;SHT31;66637;-29.628;-49.938;2023-09-07T11:21:39;18.13;81.58
77523;SHT31;66637;-29.628;-49.938;2023-09-07T11:24:12;18.16;81.58
77523;SHT31;66637;-29.628;-49.938;2023-09-07T11:26:46;18.18;81.59
77523;SHT31;66637;-29.628;-49.938;2023-09-07T11:29:18;18.30;81.52
77523;SHT31;66637;-29.628;-49.938;2023-09-07T11:31:49;18.34;81.28
77523;SHT31;66637;-29.628;-49.938;2023-09-07T11:34:19;18.40;80.96
77523;SHT31;66637;-29.628;-49.938;2023-09-07T11:36:51;18.48;80.92
77523;SHT31;66637;-29.628;-49.938;2023-09-07T11:39:21;18.57;80.67
77523;SHT31;66637;-29.628;-49.938;2023-09-07T11:41:52;18.59;80.79
77523;SHT31;66637;-29.628;-49.938;2023-09-07T11:44:23;18.58;80.49
77523;SHT31;66637;-29.628;-49.938;2023-09-07T11:46:53;18.61;80.52
77523;SHT31;66637;-29.628;-49.938;2023-09-07T11:49:25;18.59;80.76
77523;SHT31;66637;-29.628;-49.938;2023-09-07T11:51:55;18.62;80.59
77523;SHT31;66637;-29.628;-49.938;2023-09-07T11:54:27;18.58;80.79
77523;SHT31;66637;-29.628;-49.938;2023-09-07T11:56:59;18.58;81.00
77523;SHT31;66637;-29.628;-49.938;2023-09-07T11:59:30;18.57;81.11
77523;SHT31;66637;-29.628;-49.938;2023-09-07T12:02:22;18.57;80.89
77523;SHT31;66637;-29.628;-49.938;2023-09-07T12:04:53;18.61;81.00
77523;SHT31;66637;-29.628;-49.938;2023-09-07T12:07:25;18.67;81.28
77523;SHT31;66637;-29.628;-49.938;2023-09-07T12:09:57;18.69;81.34
77523;SHT31;66637;-29.628;-49.938;2023-09-07T12:12:28;18.75;81.02
77523;SHT31;66637;-29.628;-49.938;2023-09-07T12:14:59;18.76;81.14
77523;SHT31;66637;-29.628;-49.938;2023-09-07T12:17:33;18.81;80.99
77523;SHT31;66637;-29.628;-49.938;2023-09-07T12:20:06;18.85;81.12
77523;SHT31;66637;-29.628;-49.938;2023-09-07T12:22:42;18.89;80.74
77523;SHT31;66637;-29.628;-49.938;2023-09-07T12:25:12;18.85;80.94
77523;SHT31;66637;-29.628;-49.938;2023-09-07T12:27:47;18.81;81.34
77523;SHT31;66637;-29.628;-49.938;2023-09-07T12:30:22;18.78;82.17
77523;SHT31;66637;-29.628;-49.938;2023-09-07T12:32:55;18.73;82.09
77523;SHT31;66637;-29.628;-49.938;2023-09-07T12:35:25;18.75;81.68
77523;SHT31;66637;-29.628;-49.938;2023-09-07T12:37:57;18.71;82.14
77523;SHT31;66637;-29.628;-49.938;2023-09-07T12:40:28;18.67;82.77
77523;SHT31;66637;-29.628;-49.938;2023-09-07T12:43:02;18.62;83.14
77523;SHT31;66637;-29.628;-49.938;2023-09-07T12:45:33;18.52;82.75
77523;SHT31;66637;-29.628;-49.938;2023-09-07T12:48:05;18.54;83.64
77523;SHT31;66637;-29.628;-49.938;2023-09-07T12:50:37;18.57;83.48
77523;SHT31;66637;-29.628;-49.938;2023-09-07T12:53:09;18.55;82.65
77523;SHT31;66637;-29.628;-49.938;2023-09-07T12:55:41;18.52;82.61
77523;SHT31;66637;-29.628;-49.938;2023-09-07T12:58:12;18.51;82.33
77523;SHT31;66637;-29.628;-49.938;2023-09-07T13:00:42;18.49;82.24
77523;SHT31;66637;-29.628;-49.938;2023-09-07T13:03:14;18.49;82.78
77523;SHT31;66637;-29.628;-49.938;2023-09-07T13:05:45;18.44;82.47
77523;SHT31;66637;-29.628;-49.938;2023-09-07T13:08:17;18.44;82.57
77523;SHT31;66637;-29.628;-49.938;2023-09-07T13:10:47;18.47;82.79
77523;SHT31;66637;-29.628;-49.938;2023-09-07T13:13:21;18.47;82.62
77523;SHT31;66637;-29.628;-49.938;2023-09-07T13:15:58;18.49;82.63
77523;SHT31;66637;-29.628;-49.938;2023-09-07T13:18:30;18.49;82.84
77523;SHT31;66637;-29.628;-49.938;2023-09-07T13:21:00;18.52;83.07
77523;SHT31;66637;-29.628;-49.938;2023-09-07T13:23:31;18.54;83.13
77523;SHT31;66637;-29.628;-49.938;2023-09-07T13:26:02;18.51;83.41
77523;SHT31;66637;-29.628;-49.938;2023-09-07T13:28:34;18.48;83.83
77523;SHT31;66637;-29.628;-49.938;2023-09-07T13:31:05;18.45;84.14
77523;SHT31;66637;-29.628;-49.938;2023-09-07T13:33:36;18.43;84.30
77523;SHT31;66637;-29.628;-49.938;2023-09-07T13:36:07;18.34;84.76
77523;SHT31;66637;-29.628;-49.938;2023-09-07T13:38:40;18.30;85.07
77523;SHT31;66637;-29.628;-49.938;2023-09-07T13:41:12;18.27;85.04
77523;SHT31;66637;-29.628;-49.938;2023-09-07T13:43:43;18.27;85.18
77523;SHT31;66637;-29.628;-49.938;2023-09-07T13:46:15;18.27;85.10
77523;SHT31;66637;-29.628;-49.938;2023-09-07T13:48:45;18.27;85.04
77523;SHT31;66637;-29.628;-49.938;2023-09-07T13:51:16;18.28;85.00
77523;SHT31;66637;-29.628;-49.938;2023-09-07T13:53:48;18.33;84.80
77523;SHT31;66637;-29.628;-49.938;2023-09-07T13:56:20;18.28;84.96
77523;SHT31;66637;-29.628;-49.938;2023-09-07T13:58:50;18.27;84.90
77523;SHT31;66637;-29.628;-49.938;2023-09-07T14:01:21;18.27;85.06
77523;SHT31;66637;-29.628;-49.938;2023-09-07T14:03:54;18.26;85.21
77523;SHT31;66637;-29.628;-49.938;2023-09-07T14:06:24;18.30;85.10
77523;SHT31;66637;-29.628;-49.938;2023-09-07T14:08:57;18.33;85.04
77523;SHT31;66637;-29.628;-49.938;2023-09-07T14:11:28;18.30;85.15
77523;SHT31;66637;-29.628;-49.938;2023-09-07T14:13:59;18.28;85.34
77523;SHT31;66637;-29.628;-49.938;2023-09-07T14:16:31;18.33;85.11
77523;SHT31;66637;-29.628;-49.938;2023-09-07T14:19:01;18.40;84.86
77523;SHT31;66637;-29.628;-49.938;2023-09-07T14:21:32;18.51;84.30
77523;SHT31;66637;-29.628;-49.938;2023-09-07T14:24:03;18.52;84.42
77523;SHT31;66637;-29.628;-49.938;2023-09-07T14:26:35;18.52;84.14
77523;SHT31;66637;-29.628;-49.938;2023-09-07T14:29:06;18.52;83.93
77523;SHT31;66637;-29.628;-49.938;2023-09-07T14:31:37;18.61;83.56
77523;SHT31;66637;-29.628;-49.938;2023-09-07T14:34:12;18.72;83.39
77523;SHT31;66637;-29.628;-49.938;2023-09-07T14:36:43;18.88;82.77
77523;SHT31;66637;-29.628;-49.938;2023-09-07T14:39:14;18.89;83.20
77523;SHT31;66637;-29.628;-49.938;2023-09-07T14:41:47;18.88;83.32
77523;SHT31;66637;-29.628;-49.938;2023-09-07T14:44:20;18.82;83.13
77523;SHT31;66637;-29.628;-49.938;2023-09-07T14:46:51;18.81;82.87
77523;SHT31;66637;-29.628;-49.938;2023-09-07T14:49:22;18.85;83.02
77523;SHT31;66637;-29.628;-49.938;2023-09-07T14:51:53;18.81;83.00
77523;SHT31;66637;-29.628;-49.938;2023-09-07T14:54:24;18.81;82.79
77523;SHT31;66637;-29.628;-49.938;2023-09-07T14:56:55;18.78;83.03
77523;SHT31;66637;-29.628;-49.938;2023-09-07T14:59:25;18.82;82.69
77523;SHT31;66637;-29.628;-49.938;2023-09-07T15:01:56;18.87;82.70
77523;SHT31;66637;-29.628;-49.938;2023-09-07T15:04:34;18.94;82.51
77523;SHT31;66637;-29.628;-49.938;2023-09-07T15:07:07;18.96;82.54
77523;SHT31;66637;-29.628;-49.938;2023-09-07T15:09:38;19.00;82.13
77523;SHT31;66637;-29.628;-49.938;2023-09-07T15:12:11;19.08;81.89
77523;SHT31;66637;-29.628;-49.938;2023-09-07T15:14:42;19.12;81.90
77523;SHT31;66637;-29.628;-49.938;2023-09-07T15:17:16;19.16;81.59